createdAt,value
2017-04-01T00:00:41.075Z,0
2017-04-01T00:01:42.429Z,0
2017-04-01T00:02:43.664Z,0
2017-04-01T00:03:44.905Z,0
2017-04-01T00:04:46.151Z,0
2017-04-01T00:05:47.391Z,0
2017-04-01T00:06:48.661Z,0
2017-04-01T00:07:50.040Z,0
2017-04-01T00:08:51.285Z,0
2017-04-01T00:09:52.527Z,0
2017-04-01T00:10:53.769Z,0
2017-04-01T00:11:55.014Z,0
2017-04-01T00:12:56.261Z,0
2017-04-01T00:13:57.589Z,0
2017-04-01T00:14:58.796Z,0
2017-04-01T00:16:00.024Z,0
2017-04-01T00:17:01.269Z,0
2017-04-01T00:18:02.528Z,0
2017-04-01T00:19:03.961Z,0
2017-04-01T00:20:05.246Z,0
2017-04-01T00:21:06.485Z,0
2017-04-01T00:22:07.933Z,0
2017-04-01T00:23:09.188Z,0
2017-04-01T00:24:10.443Z,0
2017-04-01T00:25:11.673Z,0
2017-04-01T00:26:12.946Z,0
2017-04-01T00:27:14.244Z,0
2017-04-01T00:28:15.508Z,0
2017-04-01T00:29:16.740Z,0
2017-04-01T00:30:18.027Z,0
2017-04-01T00:31:19.270Z,0
2017-04-01T00:32:20.514Z,0
2017-04-01T00:33:21.756Z,0
2017-04-01T00:34:23.025Z,0
2017-04-01T00:35:24.242Z,0
2017-04-01T00:36:25.492Z,0
2017-04-01T00:37:26.726Z,0
2017-04-01T00:38:28.149Z,0
2017-04-01T00:39:29.465Z,0
2017-04-01T00:40:30.718Z,0
2017-04-01T00:41:31.946Z,0
2017-04-01T00:42:33.187Z,0
2017-04-01T00:43:34.452Z,0
2017-04-01T00:44:35.925Z,0
2017-04-01T00:45:37.163Z,0
2017-04-01T00:46:38.403Z,0
2017-04-01T00:47:39.726Z,0
2017-04-01T00:48:40.963Z,0
2017-04-01T00:49:42.281Z,0
2017-04-01T00:50:43.515Z,0
2017-04-01T00:51:44.766Z,0
2017-04-01T00:52:46.057Z,0
2017-04-01T00:53:47.264Z,0
2017-04-01T00:54:48.517Z,0
2017-04-01T00:55:49.782Z,0
2017-04-01T00:56:51.064Z,0
2017-04-01T00:57:52.303Z,0
2017-04-01T00:58:53.512Z,0
2017-04-01T00:59:54.794Z,0
2017-04-01T01:00:56.023Z,0
2017-04-01T01:01:57.394Z,0
2017-04-01T01:02:58.638Z,0
2017-04-01T01:03:59.915Z,0
2017-04-01T01:05:01.142Z,0
2017-04-01T01:06:02.410Z,0
2017-04-01T01:07:03.745Z,0
2017-04-01T01:08:04.993Z,0
2017-04-01T01:09:06.259Z,0
2017-04-01T01:10:07.557Z,0
2017-04-01T01:11:08.789Z,0
2017-04-01T01:12:10.034Z,0
2017-04-01T01:13:11.308Z,0
2017-04-01T01:14:12.534Z,0
2017-04-01T01:15:13.815Z,0
2017-04-01T01:16:15.172Z,0
2017-04-01T01:17:16.416Z,0
2017-04-01T01:18:17.672Z,0
2017-04-01T01:19:18.929Z,0
2017-04-01T01:20:20.369Z,0
2017-04-01T01:21:21.604Z,0
2017-04-01T01:22:22.881Z,0
2017-04-01T01:23:24.130Z,0
2017-04-01T01:24:25.366Z,0
2017-04-01T01:25:26.624Z,0
2017-04-01T01:26:27.866Z,0
2017-04-01T01:27:29.212Z,0
2017-04-01T01:28:30.413Z,0
2017-04-01T01:29:31.680Z,0
2017-04-01T01:30:32.926Z,0
2017-04-01T01:31:34.178Z,0
2017-04-01T01:32:35.490Z,0
2017-04-01T01:33:36.676Z,0
2017-04-01T01:34:38.036Z,0
2017-04-01T01:35:39.264Z,0
2017-04-01T01:36:40.513Z,0
2017-04-01T01:37:41.860Z,0
2017-04-01T01:38:43.130Z,0
2017-04-01T01:39:44.429Z,0
2017-04-01T01:40:45.708Z,0
2017-04-01T01:41:46.951Z,0
2017-04-01T01:42:48.190Z,0
2017-04-01T01:43:49.430Z,0
2017-04-01T01:44:50.679Z,0
2017-04-01T01:45:51.944Z,0
2017-04-01T01:46:53.203Z,0
2017-04-01T01:47:54.466Z,0
2017-04-01T01:48:55.743Z,0
2017-04-01T01:49:56.982Z,0
2017-04-01T01:50:58.217Z,0
2017-04-01T01:51:59.481Z,0
2017-04-01T01:53:00.719Z,0
2017-04-01T01:54:01.970Z,0
2017-04-01T01:55:03.217Z,0
2017-04-01T01:56:04.456Z,0
2017-04-01T01:57:05.803Z,0
2017-04-01T01:58:07.054Z,0
2017-04-01T01:59:08.295Z,0
2017-04-01T02:00:09.603Z,0
2017-04-01T02:01:10.838Z,0
2017-04-01T02:02:12.077Z,0
2017-04-01T02:03:13.338Z,0
2017-04-01T02:04:14.629Z,0
2017-04-01T02:05:15.988Z,0
2017-04-01T02:06:17.238Z,0
2017-04-01T02:07:18.483Z,0
2017-04-01T02:08:19.717Z,0
2017-04-01T02:09:20.980Z,0
2017-04-01T02:10:22.243Z,0
2017-04-01T02:11:23.603Z,0
2017-04-01T02:12:24.839Z,0
2017-04-01T02:13:26.090Z,0
2017-04-01T02:14:27.328Z,0
2017-04-01T02:15:28.574Z,0
2017-04-01T02:16:29.859Z,0
2017-04-01T02:17:31.126Z,0
2017-04-01T02:18:32.473Z,0
2017-04-01T02:19:33.764Z,0
2017-04-01T02:20:35.018Z,0
2017-04-01T02:21:36.246Z,0
2017-04-01T02:22:37.490Z,0
2017-04-01T02:23:38.761Z,0
2017-04-01T02:24:40.000Z,0
2017-04-01T02:25:41.236Z,0
2017-04-01T02:26:42.497Z,0
2017-04-01T02:27:43.751Z,0
2017-04-01T02:28:45.004Z,0
2017-04-01T02:29:46.294Z,0
2017-04-01T02:30:47.607Z,0
2017-04-01T02:31:48.864Z,0
2017-04-01T02:32:50.128Z,0
2017-04-01T02:33:51.340Z,0
2017-04-01T02:34:52.642Z,0
2017-04-01T02:35:54.011Z,0
2017-04-01T02:36:55.266Z,0
2017-04-01T02:37:56.503Z,0
2017-04-01T02:38:57.818Z,0
2017-04-01T02:39:59.027Z,0
2017-04-01T02:41:00.272Z,0
2017-04-01T02:42:01.605Z,0
2017-04-01T02:43:02.869Z,0
2017-04-01T02:44:04.091Z,0
2017-04-01T02:45:05.362Z,0
2017-04-01T02:46:06.598Z,0
2017-04-01T02:47:07.900Z,0
2017-04-01T02:48:09.098Z,0
2017-04-01T02:49:10.396Z,0
2017-04-01T02:50:11.735Z,0
2017-04-01T02:51:12.974Z,0
2017-04-01T02:52:14.211Z,0
2017-04-01T02:53:15.605Z,0
2017-04-01T02:54:16.746Z,0
2017-04-01T02:55:18.001Z,0
2017-04-01T02:56:19.334Z,0
2017-04-01T02:57:20.566Z,0
2017-04-01T02:58:21.823Z,0
2017-04-01T02:59:23.076Z,0
2017-04-01T03:00:24.449Z,0
2017-04-01T03:01:25.734Z,0
2017-04-01T03:02:27.000Z,0
2017-04-01T03:03:28.250Z,0
2017-04-01T03:04:29.495Z,0
2017-04-01T03:05:30.740Z,0
2017-04-01T03:06:32.032Z,0
2017-04-01T03:07:33.290Z,0
2017-04-01T03:08:34.531Z,0
2017-04-01T03:09:35.777Z,0
2017-04-01T03:10:37.009Z,0
2017-04-01T03:11:38.239Z,0
2017-04-01T03:12:39.498Z,0
2017-04-01T03:13:40.735Z,0
2017-04-01T03:14:41.974Z,0
2017-04-01T03:15:43.216Z,0
2017-04-01T03:16:44.465Z,0
2017-04-01T03:17:45.878Z,0
2017-04-01T03:18:47.008Z,0
2017-04-01T03:19:48.347Z,0
2017-04-01T03:20:49.606Z,0
2017-04-01T03:21:50.845Z,0
2017-04-01T03:22:52.112Z,0
2017-04-01T03:23:53.335Z,0
2017-04-01T03:24:54.582Z,0
2017-04-01T03:25:55.839Z,0
2017-04-01T03:26:57.084Z,0
2017-04-01T03:27:58.331Z,0
2017-04-01T03:28:59.668Z,0
2017-04-01T03:30:00.910Z,0
2017-04-01T03:31:02.206Z,0
2017-04-01T03:32:03.463Z,0
2017-04-01T03:33:04.698Z,0
2017-04-01T03:34:05.962Z,0
2017-04-01T03:35:07.197Z,0
2017-04-01T03:36:08.457Z,0
2017-04-01T03:37:09.706Z,0
2017-04-01T03:38:10.945Z,0
2017-04-01T03:39:12.399Z,0
2017-04-01T03:40:13.643Z,0
2017-04-01T03:41:14.912Z,0
2017-04-01T03:42:16.152Z,0
2017-04-01T03:43:17.441Z,0
2017-04-01T03:44:18.684Z,0
2017-04-01T03:45:19.978Z,0
2017-04-01T03:46:21.193Z,0
2017-04-01T03:47:22.455Z,0
2017-04-01T03:48:23.705Z,0
2017-04-01T03:49:24.951Z,0
2017-04-01T03:50:26.334Z,0
2017-04-01T03:51:27.571Z,0
2017-04-01T03:52:28.828Z,0
2017-04-01T03:53:30.115Z,0
2017-04-01T03:54:31.342Z,0
2017-04-01T03:55:32.575Z,0
2017-04-01T03:56:33.839Z,0
2017-04-01T03:57:35.283Z,0
2017-04-01T03:58:36.522Z,0
2017-04-01T03:59:37.781Z,0
2017-04-01T04:00:39.024Z,0
2017-04-01T04:01:40.259Z,0
2017-04-01T04:02:41.506Z,0
2017-04-01T04:03:42.762Z,0
2017-04-01T04:04:43.996Z,0
2017-04-01T04:05:45.239Z,0
2017-04-01T04:06:46.476Z,0
2017-04-01T04:07:47.869Z,0
2017-04-01T04:08:49.247Z,0
2017-04-01T04:09:50.419Z,0
2017-04-01T04:10:51.757Z,0
2017-04-01T04:11:52.989Z,0
2017-04-01T04:12:54.229Z,0
2017-04-01T04:13:55.503Z,0
2017-04-01T04:14:56.734Z,0
2017-04-01T04:15:58.108Z,0
2017-04-01T04:16:59.384Z,0
2017-04-01T04:18:00.621Z,0
2017-04-01T04:19:01.874Z,0
2017-04-01T04:20:03.105Z,0
2017-04-01T04:21:04.419Z,0
2017-04-01T04:22:05.689Z,0
2017-04-01T04:23:06.920Z,0
2017-04-01T04:24:08.167Z,0
2017-04-01T04:25:09.427Z,0
2017-04-01T04:26:10.662Z,0
2017-04-01T04:27:11.906Z,0
2017-04-01T04:28:13.221Z,0
2017-04-01T04:29:14.514Z,0
2017-04-01T04:30:15.751Z,0
2017-04-01T04:31:16.987Z,0
2017-04-01T04:32:18.214Z,0
2017-04-01T04:33:19.465Z,0
2017-04-01T04:34:20.726Z,4
2017-04-01T04:35:21.980Z,4
2017-04-01T04:36:23.230Z,4
2017-04-01T04:37:24.475Z,0
2017-04-01T04:38:25.718Z,4
2017-04-01T04:39:26.962Z,4
2017-04-01T04:40:28.234Z,4
2017-04-01T04:41:29.483Z,8
2017-04-01T04:42:30.721Z,8
2017-04-01T04:43:31.973Z,8
2017-04-01T04:44:33.244Z,12
2017-04-01T04:45:34.486Z,16
2017-04-01T04:46:35.722Z,16
2017-04-01T04:47:36.957Z,20
2017-04-01T04:48:38.246Z,24
2017-04-01T04:49:39.509Z,28
2017-04-01T04:50:40.744Z,32
2017-04-01T04:51:41.983Z,40
2017-04-01T04:52:43.222Z,44
2017-04-01T04:53:44.481Z,52
2017-04-01T04:54:45.712Z,60
2017-04-01T04:55:47.010Z,64
2017-04-01T04:56:48.232Z,72
2017-04-01T04:57:49.465Z,84
2017-04-01T04:58:50.726Z,92
2017-04-01T04:59:51.977Z,100
2017-04-01T05:00:53.332Z,112
2017-04-01T05:01:54.595Z,124
2017-04-01T05:02:55.833Z,140
2017-04-01T05:03:57.073Z,156
2017-04-01T05:04:58.314Z,176
2017-04-01T05:05:59.573Z,192
2017-04-01T05:07:00.850Z,208
2017-04-01T05:08:02.093Z,228
2017-04-01T05:09:03.336Z,248
2017-04-01T05:10:04.577Z,276
2017-04-01T05:11:05.860Z,304
2017-04-01T05:12:07.093Z,332
2017-04-01T05:13:08.438Z,360
2017-04-01T05:14:09.742Z,392
2017-04-01T05:15:10.992Z,424
2017-04-01T05:16:12.229Z,452
2017-04-01T05:17:13.472Z,488
2017-04-01T05:18:14.781Z,528
2017-04-01T05:19:16.038Z,572
2017-04-01T05:20:17.280Z,616
2017-04-01T05:21:18.516Z,668
2017-04-01T05:22:19.765Z,732
2017-04-01T05:23:20.996Z,796
2017-04-01T05:24:22.285Z,868
2017-04-01T05:25:23.534Z,944
2017-04-01T05:26:24.785Z,1024
2017-04-01T05:27:26.066Z,1096
2017-04-01T05:28:27.323Z,1160
2017-04-01T05:29:28.561Z,1224
2017-04-01T05:30:29.903Z,1288
2017-04-01T05:31:31.155Z,1356
2017-04-01T05:32:32.441Z,1432
2017-04-01T05:33:33.733Z,1512
2017-04-01T05:34:34.975Z,1600
2017-04-01T05:35:36.224Z,1680
2017-04-01T05:36:37.471Z,1760
2017-04-01T05:37:38.723Z,1832
2017-04-01T05:38:40.092Z,1904
2017-04-01T05:39:41.349Z,1980
2017-04-01T05:40:42.567Z,2060
2017-04-01T05:41:43.810Z,2152
2017-04-01T05:42:45.056Z,2252
2017-04-01T05:43:46.447Z,2360
2017-04-01T05:44:47.743Z,2468
2017-04-01T05:45:48.993Z,2568
2017-04-01T05:46:50.236Z,2648
2017-04-01T05:47:51.471Z,2712
2017-04-01T05:48:52.866Z,2768
2017-04-01T05:49:54.327Z,2840
2017-04-01T05:50:55.556Z,2924
2017-04-01T05:51:56.791Z,3040
2017-04-01T05:52:58.026Z,3172
2017-04-01T05:53:59.266Z,3308
2017-04-01T05:55:00.600Z,3444
2017-04-01T05:56:01.846Z,3572
2017-04-01T05:57:03.084Z,3708
2017-04-01T05:58:04.323Z,3880
2017-04-01T05:59:05.580Z,4164
2017-04-01T06:00:06.921Z,4528
2017-04-01T06:01:08.205Z,4916
2017-04-01T06:02:09.441Z,5488
2017-04-01T06:03:10.688Z,5700
2017-04-01T06:04:12.052Z,5688
2017-04-01T06:05:13.278Z,6296
2017-04-01T06:06:14.542Z,6384
2017-04-01T06:07:15.975Z,6368
2017-04-01T06:08:17.197Z,6576
2017-04-01T06:09:18.436Z,6380
2017-04-01T06:10:19.701Z,6340
2017-04-01T06:11:20.924Z,6472
2017-04-01T06:12:22.181Z,6576
2017-04-01T06:13:23.433Z,6232
2017-04-01T06:14:24.768Z,5888
2017-04-01T06:15:26.010Z,5748
2017-04-01T06:16:27.259Z,5628
2017-04-01T06:17:28.497Z,5540
2017-04-01T06:18:29.840Z,5672
2017-04-01T06:19:30.995Z,5844
2017-04-01T06:20:32.241Z,6044
2017-04-01T06:21:33.492Z,6256
2017-04-01T06:22:34.752Z,6436
2017-04-01T06:23:36.028Z,6668
2017-04-01T06:24:37.274Z,6500
2017-04-01T06:25:38.525Z,6520
2017-04-01T06:26:39.777Z,6584
2017-04-01T06:27:41.001Z,6652
2017-04-01T06:28:42.246Z,6816
2017-04-01T06:29:43.508Z,7032
2017-04-01T06:30:44.764Z,7576
2017-04-01T06:31:46.083Z,7896
2017-04-01T06:32:47.358Z,7688
2017-04-01T06:33:48.611Z,8500
2017-04-01T06:34:49.853Z,8944
2017-04-01T06:35:51.099Z,8876
2017-04-01T06:36:52.336Z,8680
2017-04-01T06:37:53.574Z,8332
2017-04-01T06:38:54.816Z,7724
2017-04-01T06:39:56.065Z,7736
2017-04-01T06:40:57.486Z,7704
2017-04-01T06:41:58.731Z,7544
2017-04-01T06:42:59.984Z,7696
2017-04-01T06:44:01.225Z,7860
2017-04-01T06:45:02.571Z,7828
2017-04-01T06:46:03.829Z,7984
2017-04-01T06:47:05.090Z,8164
2017-04-01T06:48:06.322Z,8340
2017-04-01T06:49:07.548Z,8748
2017-04-01T06:50:08.907Z,8772
2017-04-01T06:51:10.183Z,8660
2017-04-01T06:52:11.403Z,8768
2017-04-01T06:53:12.646Z,8572
2017-04-01T06:54:13.909Z,8292
2017-04-01T06:55:15.146Z,8304
2017-04-01T06:56:16.391Z,8392
2017-04-01T06:57:17.718Z,8480
2017-04-01T06:58:18.996Z,8688
2017-04-01T06:59:20.217Z,9216
2017-04-01T07:00:21.458Z,9624
2017-04-01T07:01:22.704Z,10748
2017-04-01T07:02:24.033Z,10576
2017-04-01T07:03:25.278Z,10276
2017-04-01T07:04:26.574Z,11668
2017-04-01T07:05:27.967Z,11896
2017-04-01T07:06:29.216Z,12244
2017-04-01T07:07:30.480Z,11908
2017-04-01T07:08:31.760Z,11972
2017-04-01T07:09:33.008Z,11788
2017-04-01T07:10:34.345Z,11872
2017-04-01T07:11:35.690Z,11980
2017-04-01T07:12:36.915Z,11780
2017-04-01T07:13:38.186Z,12332
2017-04-01T07:14:39.462Z,13472
2017-04-01T07:15:40.709Z,12680
2017-04-01T07:16:42.080Z,14184
2017-04-01T07:17:43.333Z,13500
2017-04-01T07:18:44.573Z,13172
2017-04-01T07:19:45.819Z,14120
2017-04-01T07:20:47.060Z,12868
2017-04-01T07:21:48.331Z,14024
2017-04-01T07:22:49.578Z,15968
2017-04-01T07:23:50.827Z,18176
2017-04-01T07:24:52.062Z,17024
2017-04-01T07:25:53.307Z,15648
2017-04-01T07:26:54.572Z,16576
2017-04-01T07:27:55.871Z,16128
2017-04-01T07:28:57.112Z,14540
2017-04-01T07:29:58.461Z,15712
2017-04-01T07:30:59.802Z,15776
2017-04-01T07:32:01.042Z,17280
2017-04-01T07:33:02.298Z,18336
2017-04-01T07:34:03.599Z,18688
2017-04-01T07:35:04.858Z,18880
2017-04-01T07:36:06.103Z,17792
2017-04-01T07:37:07.373Z,19296
2017-04-01T07:38:08.630Z,17760
2017-04-01T07:39:09.891Z,16736
2017-04-01T07:40:11.150Z,17056
2017-04-01T07:41:12.421Z,18208
2017-04-01T07:42:13.662Z,20608
2017-04-01T07:43:14.907Z,19360
2017-04-01T07:44:16.176Z,19040
2017-04-01T07:45:17.452Z,20608
2017-04-01T07:46:18.736Z,17600
2017-04-01T07:47:20.003Z,15648
2017-04-01T07:48:21.292Z,15648
2017-04-01T07:49:22.595Z,12680
2017-04-01T07:50:23.862Z,14192
2017-04-01T07:51:25.136Z,14816
2017-04-01T07:52:26.394Z,15968
2017-04-01T07:53:27.674Z,14240
2017-04-01T07:54:28.936Z,15488
2017-04-01T07:55:30.285Z,18080
2017-04-01T07:56:31.544Z,21280
2017-04-01T07:57:32.804Z,21856
2017-04-01T07:58:34.054Z,22240
2017-04-01T07:59:35.471Z,22784
2017-04-01T08:00:36.783Z,24832
2017-04-01T08:01:38.053Z,24000
2017-04-01T08:02:39.332Z,23648
2017-04-01T08:03:40.567Z,21760
2017-04-01T08:04:41.853Z,20416
2017-04-01T08:05:43.131Z,20448
2017-04-01T08:06:44.395Z,21792
2017-04-01T08:07:45.705Z,21312
2017-04-01T08:08:46.951Z,21376
2017-04-01T08:09:48.215Z,20960
2017-04-01T08:10:49.639Z,21472
2017-04-01T08:11:50.841Z,22752
2017-04-01T08:12:52.122Z,22592
2017-04-01T08:13:53.376Z,21088
2017-04-01T08:14:54.638Z,21920
2017-04-01T08:15:55.925Z,20288
2017-04-01T08:16:57.180Z,19328
2017-04-01T08:17:58.464Z,20544
2017-04-01T08:18:59.737Z,21280
2017-04-01T08:20:01.004Z,21376
2017-04-01T08:21:02.290Z,21056
2017-04-01T08:22:03.572Z,16172
2017-04-01T08:23:04.809Z,14132
2017-04-01T08:24:06.091Z,14052
2017-04-01T08:25:07.331Z,16992
2017-04-01T08:26:08.586Z,14032
2017-04-01T08:27:09.847Z,13600
2017-04-01T08:28:11.226Z,15000
2017-04-01T08:29:12.509Z,18720
2017-04-01T08:30:13.778Z,16800
2017-04-01T08:31:15.045Z,16800
2017-04-01T08:32:16.328Z,17024
2017-04-01T08:33:17.609Z,16992
2017-04-01T08:34:18.850Z,18048
2017-04-01T08:35:20.128Z,24416
2017-04-01T08:36:21.380Z,25792
2017-04-01T08:37:22.692Z,25600
2017-04-01T08:38:23.928Z,29888
2017-04-01T08:39:25.171Z,33376
2017-04-01T08:40:26.441Z,20608
2017-04-01T08:41:27.689Z,32288
2017-04-01T08:42:28.938Z,25664
2017-04-01T08:43:30.179Z,24928
2017-04-01T08:44:31.431Z,28736
2017-04-01T08:45:32.687Z,29792
2017-04-01T08:46:34.056Z,17180
2017-04-01T08:47:35.274Z,19904
2017-04-01T08:48:36.543Z,26496
2017-04-01T08:49:37.852Z,22176
2017-04-01T08:50:39.113Z,27040
2017-04-01T08:51:40.356Z,16960
2017-04-01T08:52:41.634Z,25760
2017-04-01T08:53:42.917Z,30176
2017-04-01T08:54:44.238Z,29728
2017-04-01T08:55:45.543Z,29792
2017-04-01T08:56:46.801Z,23488
2017-04-01T08:57:48.072Z,23936
2017-04-01T08:58:49.319Z,29504
2017-04-01T08:59:50.737Z,30496
2017-04-01T09:00:52.075Z,25696
2017-04-01T09:01:53.344Z,22944
2017-04-01T09:02:54.593Z,16192
2017-04-01T09:03:55.942Z,15828
2017-04-01T09:04:57.119Z,20672
2017-04-01T09:05:58.365Z,15024
2017-04-01T09:06:59.623Z,13248
2017-04-01T09:08:00.892Z,11832
2017-04-01T09:09:02.163Z,10628
2017-04-01T09:10:03.414Z,9808
2017-04-01T09:11:04.787Z,9424
2017-04-01T09:12:06.078Z,9368
2017-04-01T09:13:07.327Z,9680
2017-04-01T09:14:08.588Z,10332
2017-04-01T09:15:09.845Z,11556
2017-04-01T09:16:11.154Z,13580
2017-04-01T09:17:12.407Z,15476
2017-04-01T09:18:13.686Z,17600
2017-04-01T09:19:14.913Z,22048
2017-04-01T09:20:16.248Z,20480
2017-04-01T09:21:17.499Z,21184
2017-04-01T09:22:18.746Z,20224
2017-04-01T09:23:20.107Z,20960
2017-04-01T09:24:21.407Z,20896
2017-04-01T09:25:22.648Z,20448
2017-04-01T09:26:23.892Z,21472
2017-04-01T09:27:25.140Z,22464
2017-04-01T09:28:26.390Z,20960
2017-04-01T09:29:27.660Z,22176
2017-04-01T09:30:28.910Z,21664
2017-04-01T09:31:30.167Z,22240
2017-04-01T09:32:31.415Z,18912
2017-04-01T09:33:32.662Z,19552
2017-04-01T09:34:34.004Z,22720
2017-04-01T09:35:35.258Z,21888
2017-04-01T09:36:36.533Z,22176
2017-04-01T09:37:37.805Z,23584
2017-04-01T09:38:39.062Z,24928
2017-04-01T09:39:40.385Z,26432
2017-04-01T09:40:41.582Z,19008
2017-04-01T09:41:42.880Z,17344
2017-04-01T09:42:44.135Z,15408
2017-04-01T09:43:45.576Z,13896
2017-04-01T09:44:46.821Z,14084
2017-04-01T09:45:48.183Z,14136
2017-04-01T09:46:49.472Z,14080
2017-04-01T09:47:50.669Z,14428
2017-04-01T09:48:51.958Z,18112
2017-04-01T09:49:53.188Z,25792
2017-04-01T09:50:54.469Z,29536
2017-04-01T09:51:55.688Z,20544
2017-04-01T09:52:56.980Z,29504
2017-04-01T09:53:58.364Z,20640
2017-04-01T09:54:59.595Z,22688
2017-04-01T09:56:00.874Z,21152
2017-04-01T09:57:02.153Z,25568
2017-04-01T09:58:03.396Z,24640
2017-04-01T09:59:04.631Z,37280
2017-04-01T10:00:06.070Z,36352
2017-04-01T10:01:07.361Z,46816
2017-04-01T10:02:08.624Z,56992
2017-04-01T10:03:09.883Z,56064
2017-04-01T10:04:11.134Z,39520
2017-04-01T10:05:12.418Z,31968
2017-04-01T10:06:13.704Z,19712
2017-04-01T10:07:14.923Z,17280
2017-04-01T10:08:16.221Z,15896
2017-04-01T10:09:17.470Z,20000
2017-04-01T10:10:18.722Z,24800
2017-04-01T10:11:20.078Z,21088
2017-04-01T10:12:21.355Z,17120
2017-04-01T10:13:22.598Z,16736
2017-04-01T10:14:23.870Z,21216
2017-04-01T10:15:25.127Z,42368
2017-04-01T10:16:26.409Z,46944
2017-04-01T10:17:27.626Z,33760
2017-04-01T10:18:28.895Z,26528
2017-04-01T10:19:30.152Z,44992
2017-04-01T10:20:31.402Z,54912
2017-04-01T10:21:32.644Z,54560
2017-04-01T10:22:33.893Z,52288
2017-04-01T10:23:35.156Z,48192
2017-04-01T10:24:36.526Z,43104
2017-04-01T10:25:37.910Z,23552
2017-04-01T10:26:39.159Z,28224
2017-04-01T10:27:40.422Z,20736
2017-04-01T10:28:41.653Z,33888
2017-04-01T10:29:43.032Z,29632
2017-04-01T10:30:44.491Z,30656
2017-04-01T10:31:45.745Z,28960
2017-04-01T10:32:46.982Z,21504
2017-04-01T10:33:48.236Z,26080
2017-04-01T10:34:49.481Z,21216
2017-04-01T10:35:50.735Z,19616
2017-04-01T10:36:51.985Z,19360
2017-04-01T10:37:53.247Z,23232
2017-04-01T10:38:54.516Z,20032
2017-04-01T10:39:55.726Z,24672
2017-04-01T10:40:57.095Z,21344
2017-04-01T10:41:58.401Z,20000
2017-04-01T10:42:59.651Z,18816
2017-04-01T10:44:00.901Z,17120
2017-04-01T10:45:02.276Z,15732
2017-04-01T10:46:03.516Z,14064
2017-04-01T10:47:04.779Z,14348
2017-04-01T10:48:06.156Z,14472
2017-04-01T10:49:07.480Z,14180
2017-04-01T10:50:08.754Z,13776
2017-04-01T10:51:09.992Z,12880
2017-04-01T10:52:11.256Z,11540
2017-04-01T10:53:12.534Z,10708
2017-04-01T10:54:13.838Z,10492
2017-04-01T10:55:15.124Z,11856
2017-04-01T10:56:16.431Z,15108
2017-04-01T10:57:17.906Z,18176
2017-04-01T10:58:19.173Z,19584
2017-04-01T10:59:20.784Z,19488
2017-04-01T11:00:22.069Z,19488
2017-04-01T11:01:23.321Z,19712
2017-04-01T11:02:24.599Z,19520
2017-04-01T11:03:25.894Z,19008
2017-04-01T11:04:27.193Z,18400
2017-04-01T11:05:28.460Z,18368
2017-04-01T11:06:29.725Z,18720
2017-04-01T11:07:30.962Z,19104
2017-04-01T11:08:32.249Z,19488
2017-04-01T11:09:33.486Z,19872
2017-04-01T11:10:34.874Z,20000
2017-04-01T11:11:36.169Z,19712
2017-04-01T11:12:37.413Z,19200
2017-04-01T11:13:38.684Z,19392
2017-04-01T11:14:39.933Z,19456
2017-04-01T11:15:41.184Z,18720
2017-04-01T11:16:42.629Z,17504
2017-04-01T11:17:44.007Z,16096
2017-04-01T11:18:45.252Z,15000
2017-04-01T11:19:46.514Z,14692
2017-04-01T11:20:47.866Z,14384
2017-04-01T11:21:49.138Z,13892
2017-04-01T11:22:50.411Z,13700
2017-04-01T11:23:51.641Z,14068
2017-04-01T11:24:52.893Z,14404
2017-04-01T11:25:54.200Z,14724
2017-04-01T11:26:55.469Z,15020
2017-04-01T11:27:56.750Z,15212
2017-04-01T11:28:58.018Z,15800
2017-04-01T11:29:59.256Z,16128
2017-04-01T11:31:00.506Z,16164
2017-04-01T11:32:01.830Z,16040
2017-04-01T11:33:03.130Z,15988
2017-04-01T11:34:04.541Z,16028
2017-04-01T11:35:05.920Z,16156
2017-04-01T11:36:07.176Z,16704
2017-04-01T11:37:08.471Z,17216
2017-04-01T11:38:09.713Z,17504
2017-04-01T11:39:11.088Z,18688
2017-04-01T11:40:12.407Z,19808
2017-04-01T11:41:13.675Z,19936
2017-04-01T11:42:14.979Z,20064
2017-04-01T11:43:16.306Z,20384
2017-04-01T11:44:17.674Z,20992
2017-04-01T11:45:18.953Z,21280
2017-04-01T11:46:20.311Z,21536
2017-04-01T11:47:21.560Z,21664
2017-04-01T11:48:22.839Z,21440
2017-04-01T11:49:24.130Z,20800
2017-04-01T11:50:25.497Z,19392
2017-04-01T11:51:26.772Z,18464
2017-04-01T11:52:28.040Z,18560
2017-04-01T11:53:29.302Z,18816
2017-04-01T11:54:30.577Z,18528
2017-04-01T11:55:31.881Z,17504
2017-04-01T11:56:33.144Z,16500
2017-04-01T11:57:34.474Z,15908
2017-04-01T11:58:35.737Z,15620
2017-04-01T11:59:37.020Z,15064
2017-04-01T12:00:38.333Z,14664
2017-04-01T12:01:39.612Z,14256
2017-04-01T12:02:40.937Z,13960
2017-04-01T12:03:42.204Z,14084
2017-04-01T12:04:43.477Z,14276
2017-04-01T12:05:44.723Z,14452
2017-04-01T12:06:45.988Z,14432
2017-04-01T12:07:47.243Z,13920
2017-04-01T12:08:48.508Z,13556
2017-04-01T12:09:49.859Z,13296
2017-04-01T12:10:51.100Z,13328
2017-04-01T12:11:52.376Z,13400
2017-04-01T12:12:53.800Z,13744
2017-04-01T12:13:55.084Z,14396
2017-04-01T12:14:56.353Z,14368
2017-04-01T12:15:57.630Z,13720
2017-04-01T12:16:58.864Z,13500
2017-04-01T12:18:00.124Z,13012
2017-04-01T12:19:01.368Z,12620
2017-04-01T12:20:02.708Z,12440
2017-04-01T12:21:04.010Z,12144
2017-04-01T12:22:05.304Z,12248
2017-04-01T12:23:06.527Z,11944
2017-04-01T12:24:07.815Z,11808
2017-04-01T12:25:09.045Z,12136
2017-04-01T12:26:10.478Z,12380
2017-04-01T12:27:11.738Z,12772
2017-04-01T12:28:13.003Z,13468
2017-04-01T12:29:14.318Z,13504
2017-04-01T12:30:15.527Z,12412
2017-04-01T12:31:16.810Z,11472
2017-04-01T12:32:18.139Z,10444
2017-04-01T12:33:19.339Z,9852
2017-04-01T12:34:20.623Z,9852
2017-04-01T12:35:21.909Z,10016
2017-04-01T12:36:23.183Z,9680
2017-04-01T12:37:24.462Z,9204
2017-04-01T12:38:25.723Z,9032
2017-04-01T12:39:26.982Z,9264
2017-04-01T12:40:28.263Z,9872
2017-04-01T12:41:29.527Z,10568
2017-04-01T12:42:30.891Z,11012
2017-04-01T12:43:32.215Z,11540
2017-04-01T12:44:33.477Z,12300
2017-04-01T12:45:34.733Z,12708
2017-04-01T12:46:35.991Z,13004
2017-04-01T12:47:37.262Z,13356
2017-04-01T12:48:38.632Z,13832
2017-04-01T12:49:39.865Z,14236
2017-04-01T12:50:41.123Z,14472
2017-04-01T12:51:42.392Z,14580
2017-04-01T12:52:43.646Z,14620
2017-04-01T12:53:44.905Z,14532
2017-04-01T12:54:46.400Z,14568
2017-04-01T12:55:47.775Z,14664
2017-04-01T12:56:49.029Z,14544
2017-04-01T12:57:50.272Z,14496
2017-04-01T12:58:51.553Z,14384
2017-04-01T12:59:52.918Z,14008
2017-04-01T13:00:54.197Z,13104
2017-04-01T13:01:55.494Z,11872
2017-04-01T13:02:56.760Z,10800
2017-04-01T13:03:58.055Z,10276
2017-04-01T13:04:59.342Z,10044
2017-04-01T13:06:00.725Z,10128
2017-04-01T13:07:01.976Z,10128
2017-04-01T13:08:03.251Z,10104
2017-04-01T13:09:04.495Z,10240
2017-04-01T13:10:05.749Z,10532
2017-04-01T13:11:07.020Z,10544
2017-04-01T13:12:08.359Z,10260
2017-04-01T13:13:09.678Z,9964
2017-04-01T13:14:10.907Z,9824
2017-04-01T13:15:12.207Z,9952
2017-04-01T13:16:13.468Z,10016
2017-04-01T13:17:14.782Z,10044
2017-04-01T13:18:16.145Z,10092
2017-04-01T13:19:17.422Z,10088
2017-04-01T13:20:18.713Z,10024
2017-04-01T13:21:19.972Z,9908
2017-04-01T13:22:21.259Z,9880
2017-04-01T13:23:22.681Z,10044
2017-04-01T13:24:24.050Z,10348
2017-04-01T13:25:25.287Z,10692
2017-04-01T13:26:26.577Z,11052
2017-04-01T13:27:27.837Z,11416
2017-04-01T13:28:29.107Z,11808
2017-04-01T13:29:30.584Z,12092
2017-04-01T13:30:31.902Z,12284
2017-04-01T13:31:33.162Z,12404
2017-04-01T13:32:34.492Z,12428
2017-04-01T13:33:35.793Z,12564
2017-04-01T13:34:37.103Z,12612
2017-04-01T13:35:38.384Z,12276
2017-04-01T13:36:39.665Z,11912
2017-04-01T13:37:40.888Z,11532
2017-04-01T13:38:42.354Z,11124
2017-04-01T13:39:43.655Z,10800
2017-04-01T13:40:44.902Z,10584
2017-04-01T13:41:46.327Z,10504
2017-04-01T13:42:47.591Z,10364
2017-04-01T13:43:48.831Z,10088
2017-04-01T13:44:50.167Z,9776
2017-04-01T13:45:51.651Z,9464
2017-04-01T13:46:52.896Z,9212
2017-04-01T13:47:54.135Z,9096
2017-04-01T13:48:55.384Z,9108
2017-04-01T13:49:56.643Z,9216
2017-04-01T13:50:57.988Z,9316
2017-04-01T13:51:59.270Z,9112
2017-04-01T13:53:00.519Z,8760